createdAt,value
2023-01-29T00:02:58.676Z,4.80
2023-01-29T00:08:00.566Z,5.00
2023-01-29T00:13:02.084Z,4.60
2023-01-29T00:18:03.881Z,4.80
2023-01-29T00:23:05.377Z,5.60
2023-01-29T00:28:07.247Z,5.00
2023-01-29T00:33:08.743Z,5.20
2023-01-29T00:38:10.720Z,5.50
2023-01-29T00:43:30.437Z,4.80
2023-01-29T00:48:32.529Z,5.50
2023-01-29T00:53:34.045Z,4.10
2023-01-29T00:58:35.651Z,4.00
2023-01-29T01:03:42.474Z,4.50
2023-01-29T01:09:02.779Z,4.80
2023-01-29T01:14:04.273Z,4.00
2023-01-29T01:19:06.071Z,4.40
2023-01-29T01:24:07.782Z,3.80
2023-01-29T01:29:09.525Z,3.20
2023-01-29T01:34:11.356Z,3.40
2023-01-29T01:39:12.918Z,2.30
2023-01-29T01:44:51.584Z,3.60
2023-01-29T01:49:56.458Z,2.80
2023-01-29T01:55:00.093Z,3.20
2023-01-29T02:00:11.583Z,3.60
2023-01-29T02:05:32.872Z,3.20
2023-01-29T02:10:47.727Z,3.40
2023-01-29T02:15:50.659Z,3.10
2023-01-29T02:21:29.256Z,3.20
2023-01-29T02:26:55.424Z,3.90
2023-01-29T02:32:11.899Z,3.10
2023-01-29T02:37:14.426Z,3.10
2023-01-29T02:42:32.353Z,3.50
2023-01-29T02:47:57.516Z,3.70
2023-01-29T02:53:07.941Z,3.50
2023-01-29T02:58:28.070Z,3.40
2023-01-29T03:03:41.819Z,3.50
2023-01-29T03:08:50.104Z,3.80
2023-01-29T03:14:04.421Z,3.00
2023-01-29T03:19:10.901Z,3.10
2023-01-29T03:24:33.969Z,3.60
2023-01-29T03:29:56.841Z,3.30
2023-01-29T03:35:04.841Z,3.50
2023-01-29T03:40:08.201Z,3.30
2023-01-29T03:45:24.321Z,3.50
2023-01-29T03:50:37.450Z,3.60
2023-01-29T03:56:02.041Z,3.30
2023-01-29T04:01:06.953Z,3.30
2023-01-29T04:06:30.580Z,3.00
2023-01-29T04:11:36.159Z,3.70
2023-01-29T04:16:41.966Z,3.70
2023-01-29T04:21:45.393Z,3.50
2023-01-29T04:26:55.021Z,3.70
2023-01-29T04:32:11.346Z,3.80
2023-01-29T04:37:19.544Z,3.40
2023-01-29T04:42:31.267Z,4.00
2023-01-29T04:47:40.097Z,3.20
2023-01-29T04:52:47.585Z,4.20
2023-01-29T04:58:07.515Z,4.10
2023-01-29T05:03:13.421Z,4.10
2023-01-29T05:08:20.776Z,4.00
2023-01-29T05:13:24.687Z,4.10
2023-01-29T05:18:26.457Z,5.10
2023-01-29T05:23:28.276Z,4.60
2023-01-29T05:28:31.146Z,4.20
2023-01-29T05:33:32.650Z,5.60
2023-01-29T05:38:34.547Z,6.20
2023-01-29T05:43:36.378Z,5.10
2023-01-29T05:48:38.269Z,6.30
2023-01-29T05:53:39.948Z,5.40
2023-01-29T05:58:41.483Z,5.20
2023-01-29T06:03:43.738Z,4.90
2023-01-29T06:08:45.466Z,5.50
2023-01-29T06:13:47.893Z,4.50
2023-01-29T06:18:49.402Z,5.00
2023-01-29T06:23:53.803Z,4.70
2023-01-29T06:28:55.438Z,4.10
2023-01-29T06:33:57.117Z,4.50
2023-01-29T06:38:58.621Z,4.80
2023-01-29T06:44:00.249Z,4.60
2023-01-29T06:49:01.821Z,4.20
2023-01-29T06:54:03.522Z,5.20
2023-01-29T06:59:05.859Z,7.60
2023-01-29T07:04:07.675Z,7.50
2023-01-29T07:09:12.769Z,4.90
2023-01-29T07:14:14.800Z,5.40
2023-01-29T07:19:16.317Z,7.50
2023-01-29T07:24:19.479Z,7.60
2023-01-29T07:29:21.101Z,6.50
2023-01-29T07:34:22.576Z,6.50
2023-01-29T07:39:24.092Z,4.80
2023-01-29T07:44:25.564Z,8.60
2023-01-29T07:49:27.049Z,6.60
2023-01-29T07:54:28.852Z,5.60
2023-01-29T07:59:31.183Z,6.20
2023-01-29T08:04:32.683Z,11.30
2023-01-29T08:09:34.338Z,9.60
2023-01-29T08:14:36.087Z,6.20
2023-01-29T08:19:37.588Z,5.00
2023-01-29T08:24:53.324Z,6.80
2023-01-29T08:29:56.117Z,7.20
2023-01-29T08:34:57.712Z,6.20
2023-01-29T08:39:59.484Z,5.90
2023-01-29T08:45:01.010Z,7.00
2023-01-29T08:50:02.786Z,5.80
2023-01-29T08:55:04.656Z,6.00
2023-01-29T09:00:07.971Z,5.70
2023-01-29T09:05:10.219Z,4.60
2023-01-29T09:10:12.350Z,5.90
2023-01-29T09:15:13.924Z,6.20
2023-01-29T09:20:15.991Z,5.60
2023-01-29T09:25:17.936Z,5.30
2023-01-29T09:30:19.788Z,7.40
2023-01-29T09:35:23.038Z,6.70
2023-01-29T09:40:45.731Z,6.20
2023-01-29T09:45:58.647Z,8.80
2023-01-29T09:51:06.598Z,6.10
2023-01-29T09:56:18.578Z,6.40
2023-01-29T10:01:29.561Z,6.50
2023-01-29T10:06:47.669Z,5.80
2023-01-29T10:12:28.317Z,6.40
2023-01-29T10:17:54.096Z,6.50
2023-01-29T10:23:12.819Z,6.70
2023-01-29T10:28:18.700Z,7.30
2023-01-29T10:33:49.372Z,6.60
2023-01-29T10:38:56.393Z,5.70
2023-01-29T10:44:05.476Z,6.50
2023-01-29T10:49:37.903Z,5.30
2023-01-29T10:55:15.227Z,6.00
2023-01-29T11:00:25.003Z,6.20
2023-01-29T11:05:33.100Z,6.40
2023-01-29T11:10:42.008Z,6.10
2023-01-29T11:15:43.889Z,6.40
2023-01-29T11:20:47.117Z,5.80
2023-01-29T11:25:53.674Z,5.20
2023-01-29T11:30:55.517Z,6.20
2023-01-29T11:35:58.104Z,5.80
2023-01-29T11:41:18.834Z,6.20
2023-01-29T11:46:20.868Z,6.20
2023-01-29T11:51:27.088Z,5.50
2023-01-29T11:56:49.221Z,5.10
2023-01-29T12:01:50.821Z,5.10
2023-01-29T12:06:54.063Z,7.10
2023-01-29T12:11:56.217Z,6.20
2023-01-29T12:17:11.731Z,6.40
2023-01-29T12:22:31.404Z,6.00
2023-01-29T12:27:48.083Z,5.40
2023-01-29T12:32:55.623Z,5.60
2023-01-29T12:38:20.351Z,6.30
2023-01-29T12:43:27.593Z,5.90
2023-01-29T12:48:34.466Z,5.80
2023-01-29T12:53:42.216Z,6.10
2023-01-29T12:58:51.424Z,5.40
2023-01-29T13:04:02.726Z,6.40
2023-01-29T13:09:09.967Z,6.40
2023-01-29T13:14:33.348Z,6.90
2023-01-29T13:19:40.484Z,6.50
2023-01-29T13:24:55.508Z,6.70
2023-01-29T13:30:06.128Z,7.40
2023-01-29T13:35:14.941Z,6.50
2023-01-29T13:40:25.803Z,6.10
2023-01-29T13:45:35.109Z,4.70
2023-01-29T13:50:40.385Z,7.30
2023-01-29T13:55:41.967Z,7.50
2023-01-29T14:00:43.625Z,7.20
2023-01-29T14:05:58.434Z,11.10
2023-01-29T14:11:15.403Z,10.20
2023-01-29T14:16:16.932Z,8.60
2023-01-29T14:21:31.844Z,8.10
2023-01-29T14:26:43.681Z,8.50
2023-01-29T14:31:51.101Z,9.10
2023-01-29T14:36:56.768Z,7.00
2023-01-29T14:41:59.837Z,8.50
2023-01-29T14:47:01.357Z,8.00
2023-01-29T14:52:03.772Z,6.70
2023-01-29T14:57:09.048Z,9.80
2023-01-29T15:02:38.426Z,8.60
2023-01-29T15:07:49.530Z,9.40
2023-01-29T15:13:17.799Z,9.80
2023-01-29T15:18:43.893Z,9.00
2023-01-29T15:23:48.907Z,10.30
2023-01-29T15:29:04.156Z,11.40
2023-01-29T15:34:07.741Z,11.00
2023-01-29T15:39:09.244Z,10.90
2023-01-29T15:44:16.820Z,11.70
2023-01-29T15:49:38.003Z,10.20
2023-01-29T15:54:39.727Z,11.90
2023-01-29T15:59:44.986Z,11.00
2023-01-29T16:04:46.837Z,11.60
2023-01-29T16:09:49.859Z,13.30
2023-01-29T16:14:52.584Z,11.00
2023-01-29T16:20:01.401Z,12.10
2023-01-29T16:25:12.504Z,12.80
2023-01-29T16:30:16.538Z,13.10
2023-01-29T16:35:19.082Z,12.70
2023-01-29T16:40:27.219Z,11.20
2023-01-29T16:45:29.609Z,10.30
2023-01-29T16:50:40.671Z,10.60
2023-01-29T16:55:49.659Z,11.20
2023-01-29T17:01:13.706Z,10.80
2023-01-29T17:06:26.644Z,12.40
2023-01-29T17:11:31.213Z,10.00
2023-01-29T17:16:36.210Z,9.90
2023-01-29T17:21:37.737Z,9.90
2023-01-29T17:26:40.017Z,9.00
2023-01-29T17:31:42.864Z,10.40
2023-01-29T17:36:45.154Z,10.70
2023-01-29T17:41:52.651Z,10.00
2023-01-29T17:46:55.711Z,10.70
2023-01-29T17:51:57.706Z,11.10
2023-01-29T17:56:59.571Z,11.20
2023-01-29T18:02:01.220Z,13.30
2023-01-29T18:07:02.806Z,12.90
2023-01-29T18:12:10.297Z,11.90
2023-01-29T18:17:11.842Z,9.70
2023-01-29T18:22:14.049Z,11.10
2023-01-29T18:27:15.752Z,12.40
2023-01-29T18:32:17.642Z,11.40
2023-01-29T18:37:19.341Z,10.50
2023-01-29T18:42:21.068Z,11.00
2023-01-29T18:47:23.718Z,10.90
2023-01-29T18:52:26.191Z,11.20
2023-01-29T18:58:28.577Z,11.50
2023-01-29T19:02:50.804Z,11.70
2023-01-29T19:07:52.468Z,11.30
2023-01-29T19:12:54.157Z,10.80
2023-01-29T19:17:56.454Z,10.50
2023-01-29T19:22:58.329Z,11.60
2023-01-29T19:27:59.957Z,11.90
2023-01-29T19:33:01.615Z,10.70
2023-01-29T19:38:04.698Z,11.60
2023-01-29T19:43:06.436Z,9.90
2023-01-29T19:48:08.304Z,11.60
2023-01-29T19:53:10.051Z,11.40
2023-01-29T19:58:11.616Z,12.70
2023-01-29T20:03:15.356Z,11.80
2023-01-29T20:08:17.563Z,11.10
2023-01-29T20:13:19.568Z,11.30
2023-01-29T20:18:21.784Z,12.40
2023-01-29T20:23:37.291Z,7.30
2023-01-29T20:28:39.840Z,10.90
2023-01-29T20:33:41.878Z,10.70
2023-01-29T20:38:43.450Z,10.00
2023-01-29T20:43:46.915Z,10.80
2023-01-29T20:48:49.477Z,10.30
2023-01-29T20:53:51.385Z,12.30
2023-01-29T20:58:53.068Z,10.50
2023-01-29T21:03:54.544Z,9.30
2023-01-29T21:08:56.095Z,10.60
2023-01-29T21:13:57.895Z,11.20
2023-01-29T21:19:00.032Z,12.10
2023-01-29T21:24:01.624Z,10.30
2023-01-29T21:29:03.170Z,10.00
2023-01-29T21:34:05.217Z,8.60
2023-01-29T21:39:16.805Z,11.40
2023-01-29T21:44:18.319Z,9.90
2023-01-29T21:49:19.964Z,11.90
2023-01-29T21:54:21.479Z,11.90
2023-01-29T21:59:24.069Z,10.40
2023-01-29T22:04:26.645Z,10.60
2023-01-29T22:09:28.176Z,11.00
2023-01-29T22:14:29.753Z,8.10
2023-01-29T22:19:31.262Z,10.70
2023-01-29T22:24:33.047Z,9.20
2023-01-29T22:29:35.045Z,10.00
2023-01-29T22:34:36.995Z,10.10
2023-01-29T22:39:38.492Z,11.30
2023-01-29T22:44:40.352Z,9.50
2023-01-29T22:49:42.775Z,11.20
2023-01-29T22:54:44.536Z,10.10
2023-01-29T22:59:46.094Z,10.60
2023-01-29T23:04:47.645Z,11.40
2023-01-29T23:09:49.178Z,11.30
2023-01-29T23:14:50.679Z,8.00
2023-01-29T23:19:52.191Z,10.50
2023-01-29T23:24:53.722Z,10.10
2023-01-29T23:29:55.334Z,9.80
2023-01-29T23:34:57.115Z,10.70
2023-01-29T23:39:58.603Z,9.70
2023-01-29T23:45:00.144Z,10.40
2023-01-29T23:50:01.796Z,8.70
2023-01-29T23:55:05.035Z,8.40
